Time;durP1;ratioP1;P1;durP2;ratioP2;P2;SDS_P1;SDS_P2;PMS_P1;PMS_P2;Temp;Humidity;BMP_temperature;BMP_pressure;BME280_temperature;BME280_humidity;BME280_pressure;Samples;Min_cycle;Max_cycle;Signal;HPM_P1;HPM_P2
2022/05/22 05:03:24;;;;;;;5.18;3.33;;;12.80;99.90;;;;;;6199916;23;20017;-78
2022/05/22 05:05:57;;;;;;;4.53;3.15;;;12.90;99.90;;;;;;6173294;23;20004;-78
2022/05/22 05:08:26;;;;;;;5.25;3.10;;;13.00;99.90;;;;;;6174054;23;20008;-80
2022/05/22 05:11:00;;;;;;;7.07;3.33;;;13.00;99.90;;;;;;6198359;23;20001;-78
2022/05/22 05:13:32;;;;;;;5.57;3.10;;;13.10;99.90;;;;;;6198817;23;20024;-81
2022/05/22 05:16:05;;;;;;;4.55;3.00;;;13.10;99.90;;;;;;6172386;23;20013;-81
2022/05/22 05:18:38;;;;;;;5.57;3.20;;;13.20;99.90;;;;;;6198673;23;20005;-80
2022/05/22 05:21:10;;;;;;;4.32;3.00;;;13.30;99.90;;;;;;6174068;23;20005;-81
2022/05/22 05:23:37;;;;;;;4.38;2.90;;;13.40;99.90;;;;;;6174098;23;20286;-81
2022/05/22 05:26:12;;;;;;;4.40;2.70;;;13.50;99.90;;;;;;6198417;23;20001;-79
2022/05/22 05:28:38;;;;;;;5.25;2.65;;;13.60;99.90;;;;;;6198467;23;20048;-79
2022/05/22 05:31:06;;;;;;;5.57;3.13;;;13.70;99.90;;;;;;6196914;23;20015;-80
2022/05/22 05:33:34;;;;;;;6.15;2.70;;;13.90;99.70;;;;;;6198276;23;20008;-80
2022/05/22 05:36:14;;;;;;;4.25;2.85;;;14.00;99.50;;;;;;6198285;23;20028;-80
2022/05/22 05:38:58;;;;;;;4.40;2.92;;;14.10;99.30;;;;;;6224125;23;20059;-80
2022/05/22 05:41:42;;;;;;;5.35;2.88;;;14.20;99.00;;;;;;6176948;23;20058;-80
2022/05/22 05:44:08;;;;;;;4.53;2.70;;;14.40;98.80;;;;;;6198368;23;20005;-80
2022/05/22 05:46:46;;;;;;;4.50;2.40;;;14.50;98.60;;;;;;6174469;23;20175;-80
2022/05/22 05:49:13;;;;;;;4.20;2.45;;;14.60;98.30;;;;;;6173500;23;20004;-81
2022/05/22 05:51:41;;;;;;;4.82;2.70;;;14.80;98.00;;;;;;6198129;23;20004;-80
2022/05/22 05:54:07;;;;;;;3.85;2.38;;;15.00;97.60;;;;;;6197789;23;20182;-78
2022/05/22 05:56:52;;;;;;;3.15;2.20;;;15.20;97.20;;;;;;6223678;23;20058;-79
2022/05/22 05:59:34;;;;;;;5.13;2.70;;;15.30;96.90;;;;;;6198298;23;20008;-79
2022/05/22 06:02:21;;;;;;;6.15;2.50;;;15.50;96.50;;;;;;6162282;23;20025;-80
2022/05/22 06:04:46;;;;;;;5.55;2.35;;;15.60;96.10;;;;;;6162330;23;20009;-79
2022/05/22 06:07:12;;;;;;;6.00;2.47;;;15.60;95.90;;;;;;6187458;23;20005;-81
2022/05/22 06:09:39;;;;;;;6.07;2.85;;;15.80;95.80;;;;;;6188231;23;20072;-80
2022/05/22 06:12:10;;;;;;;5.10;2.05;;;16.00;95.20;;;;;;6165311;23;20315;-79
2022/05/22 06:14:41;;;;;;;4.95;2.53;;;16.10;95.00;;;;;;6188206;23;20006;-80
2022/05/22 06:17:08;;;;;;;4.53;2.30;;;16.20;94.70;;;;;;6162256;23;20076;-81
2022/05/22 06:19:57;;;;;;;6.45;2.50;;;16.30;94.60;;;;;;6162576;23;20113;-80
2022/05/22 06:22:28;;;;;;;4.13;2.20;;;16.20;94.50;;;;;;6193332;23;20269;-79
2022/05/22 06:24:57;;;;;;;5.43;2.17;;;16.30;94.70;;;;;;6165631;23;20016;-80
2022/05/22 06:27:23;;;;;;;5.60;2.63;;;16.40;94.50;;;;;;6165773;23;20168;-79
2022/05/22 06:30:03;;;;;;;2.97;1.95;;;16.60;94.30;;;;;;6169821;23;20053;-78
2022/05/22 06:32:29;;;;;;;6.20;2.30;;;16.80;93.90;;;;;;6163922;23;20025;-79
2022/05/22 06:35:08;;;;;;;5.15;2.25;;;16.90;93.60;;;;;;6162472;23;20291;-80
2022/05/22 06:38:01;;;;;;;5.55;2.17;;;17.10;93.40;;;;;;6165262;23;20090;-78
2022/05/22 06:41:08;;;;;;;7.85;2.42;;;17.40;93.10;;;;;;6146868;23;20013;-78
2022/05/22 06:43:51;;;;;;;6.05;2.17;;;17.60;92.50;;;;;;6161879;23;20016;-79
2022/05/22 06:46:45;;;;;;;5.07;2.40;;;17.80;92.20;;;;;;6187084;23;20020;-79
2022/05/22 06:49:50;;;;;;;4.32;2.38;;;18.00;92.10;;;;;;6162870;23;20009;-86
2022/05/22 06:52:33;;;;;;;6.80;1.70;;;18.10;91.70;;;;;;6162805;23;20005;-78
2022/05/22 06:55:15;;;;;;;4.55;1.75;;;18.20;91.10;;;;;;6186401;23;20005;-79
2022/05/22 06:58:04;;;;;;;4.70;1.85;;;18.30;91.20;;;;;;6161308;23;20299;-79
2022/05/22 07:00:51;;;;;;;4.95;1.90;;;18.40;90.80;;;;;;6161453;23;20260;-78
2022/05/22 07:03:43;;;;;;;5.03;2.10;;;18.50;91.10;;;;;;6191020;23;20013;-77
2022/05/22 07:06:35;;;;;;;5.43;1.67;;;18.70;90.50;;;;;;6189263;23;20059;-77
2022/05/22 07:09:19;;;;;;;3.35;1.98;;;18.90;90.10;;;;;;6170188;23;20075;-79
2022/05/22 07:12:12;;;;;;;4.45;2.00;;;19.00;89.70;;;;;;6191191;23;20198;-79
2022/05/22 07:15:01;;;;;;;2.70;1.60;;;19.10;88.80;;;;;;6151006;23;20012;-80
2022/05/22 07:17:42;;;;;;;3.25;1.60;;;19.30;88.80;;;;;;6191384;23;20043;-79
2022/05/22 07:20:46;;;;;;;5.25;1.65;;;19.60;86.90;;;;;;6073459;23;20011;-79
2022/05/22 07:23:22;;;;;;;3.58;1.50;;;19.60;85.70;;;;;;6075014;23;20017;-78
2022/05/22 07:26:08;;;;;;;3.40;1.58;;;19.80;85.10;;;;;;6152946;23;20009;-78
2022/05/22 07:28:54;;;;;;;3.17;1.73;;;19.80;85.10;;;;;;6165897;23;20012;-80
2022/05/22 07:31:40;;;;;;;3.15;1.30;;;19.90;85.00;;;;;;6169690;23;20087;-79
2022/05/22 07:34:26;;;;;;;5.20;1.63;;;20.00;84.70;;;;;;6191489;23;20052;-80
2022/05/22 07:37:21;;;;;;;3.58;1.60;;;20.10;83.50;;;;;;6149061;23;20076;-79
2022/05/22 07:40:06;;;;;;;6.20;1.60;;;20.20;83.70;;;;;;6193949;23;20016;-79
2022/05/22 07:42:52;;;;;;;6.20;1.52;;;20.30;82.90;;;;;;6172035;23;20009;-82
2022/05/22 07:45:35;;;;;;;3.92;1.60;;;20.50;82.70;;;;;;6166945;23;20055;-79
2022/05/22 07:48:22;;;;;;;3.90;1.30;;;20.70;82.10;;;;;;6192821;23;20079;-79
2022/05/22 07:51:00;;;;;;;3.25;1.60;;;20.70;81.40;;;;;;6167126;23;20009;-78
2022/05/22 07:53:39;;;;;;;5.97;1.73;;;20.80;81.50;;;;;;6168137;23;20290;-79
2022/05/22 07:56:34;;;;;;;3.60;1.30;;;20.70;81.20;;;;;;6168831;23;20009;-77
2022/05/22 07:59:19;;;;;;;3.45;1.45;;;20.90;80.70;;;;;;6195763;23;20016;-79
2022/05/22 08:02:12;;;;;;;2.65;1.10;;;20.80;80.30;;;;;;6182297;23;20315;-79
2022/05/22 08:04:43;;;;;;;6.10;1.55;;;20.70;80.50;;;;;;6169872;23;20009;-79
2022/05/22 08:07:27;;;;;;;3.33;1.20;;;20.80;80.20;;;;;;6172873;23;20012;-79
2022/05/22 08:10:20;;;;;;;3.50;1.30;;;20.80;79.00;;;;;;6190664;23;20009;-79
2022/05/22 08:12:50;;;;;;;2.97;1.20;;;20.90;79.10;;;;;;6169032;23;20001;-78
2022/05/22 08:15:30;;;;;;;3.47;1.20;;;21.00;78.60;;;;;;6167280;23;20009;-79
2022/05/22 08:18:03;;;;;;;5.25;1.20;;;21.00;79.30;;;;;;6133002;23;20006;-78
2022/05/22 08:20:34;;;;;;;4.88;1.30;;;21.20;79.40;;;;;;6133115;23;20013;-79
2022/05/22 08:23:15;;;;;;;4.82;1.40;;;21.40;78.20;;;;;;6086949;23;20006;-80
2022/05/22 08:25:45;;;;;;;3.42;0.98;;;21.50;77.60;;;;;;6133807;23;20034;-79
2022/05/22 08:28:12;;;;;;;4.15;1.35;;;21.50;77.20;;;;;;6133145;23;20009;-79
2022/05/22 08:30:39;;;;;;;2.45;1.17;;;21.60;75.80;;;;;;6132086;23;20022;-79
2022/05/22 08:33:06;;;;;;;3.65;1.10;;;21.50;75.20;;;;;;6131017;23;20018;-79
2022/05/22 08:36:02;;;;;;;1.85;1.00;;;21.40;74.80;;;;;;6132527;23;20283;-81
2022/05/22 08:38:52;;;;;;;2.28;0.85;;;21.50;75.00;;;;;;6132281;23;20013;-80
2022/05/22 08:41:39;;;;;;;3.65;0.80;;;21.60;75.00;;;;;;6037694;23;20030;-80
2022/05/22 08:44:12;;;;;;;3.25;1.20;;;21.70;73.90;;;;;;6131694;23;20006;-82
2022/05/22 08:47:03;;;;;;;5.25;1.35;;;21.60;74.50;;;;;;6131327;23;20017;-79
2022/05/22 08:49:48;;;;;;;6.50;1.02;;;21.60;72.90;;;;;;6169430;23;20076;-82
2022/05/22 08:52:54;;;;;;;4.97;1.10;;;21.70;72.60;;;;;;6184915;23;20345;-83
2022/05/22 08:55:24;;;;;;;7.75;3.50;;;21.70;73.20;;;;;;6193193;23;20005;-80
2022/05/22 09:01:15;;;;;;;3.08;0.90;;;21.80;70.40;;;;;;6191523;23;20019;-79
2022/05/22 09:04:16;;;;;;;4.25;1.10;;;21.90;70.70;;;;;;6194427;23;20013;-80
2022/05/22 09:06:56;;;;;;;4.28;0.95;;;21.90;71.30;;;;;;6071659;23;20495;-82
2022/05/22 09:09:29;;;;;;;4.75;1.00;;;22.10;71.50;;;;;;6162461;23;20344;-80
2022/05/22 09:12:00;;;;;;;3.08;0.90;;;22.20;70.20;;;;;;6166517;23;20192;-78
2022/05/22 09:14:54;;;;;;;3.85;0.90;;;22.20;69.90;;;;;;6193292;23;20005;-80
2022/05/22 09:17:27;;;;;;;1.73;0.75;;;22.30;70.40;;;;;;6149680;23;20074;-78
2022/05/22 09:20:09;;;;;;;3.83;0.90;;;22.50;71.90;;;;;;6194978;23;20001;-79
2022/05/22 09:23:03;;;;;;;3.13;1.10;;;22.70;70.90;;;;;;6170482;23;20112;-79
2022/05/22 09:25:56;;;;;;;3.90;0.70;;;22.80;70.40;;;;;;6194154;23;20009;-79
2022/05/22 09:28:26;;;;;;;3.72;1.13;;;23.00;69.60;;;;;;6168091;23;20005;-79
2022/05/22 09:31:17;;;;;;;2.42;0.80;;;23.00;68.80;;;;;;6166951;23;20009;-79
2022/05/22 09:34:09;;;;;;;3.08;1.08;;;23.00;68.80;;;;;;6193045;23;20027;-80
2022/05/22 09:36:51;;;;;;;2.08;0.98;;;23.10;68.80;;;;;;6192907;23;20005;-82
2022/05/22 09:39:25;;;;;;;2.95;0.90;;;23.20;68.80;;;;;;6192754;23;20366;-80
2022/05/22 09:42:06;;;;;;;2.25;0.93;;;23.20;68.60;;;;;;6141444;23;20009;-81
2022/05/22 09:45:06;;;;;;;2.40;0.90;;;23.30;67.40;;;;;;6166886;23;20012;-79
2022/05/22 09:47:56;;;;;;;1.80;0.90;;;23.30;68.20;;;;;;6192268;23;20064;-79
2022/05/22 09:50:25;;;;;;;2.92;0.77;;;23.50;68.00;;;;;;6192289;23;20001;-80
2022/05/22 09:52:58;;;;;;;;;;;23.50;67.60;;;;;;6192880;23;20270;-78
2022/05/22 09:56:03;;;;;;;3.10;0.75;;;23.50;67.70;;;;;;6191494;23;19923;-80
2022/05/22 09:58:50;;;;;;;3.15;0.88;;;23.70;68.10;;;;;;6166193;23;20013;-81
2022/05/22 10:01:41;;;;;;;6.50;1.10;;;23.90;67.30;;;;;;6165499;23;20320;-79
2022/05/22 10:04:22;;;;;;;;;;;24.20;67.20;;;;;;6167763;23;20017;-79
2022/05/22 10:07:10;;;;;;;4.20;1.13;;;24.60;67.80;;;;;;6193688;23;19900;-77
2022/05/22 10:09:49;;;;;;;2.20;0.80;;;24.70;66.70;;;;;;6193588;23;20024;-78
2022/05/22 10:12:55;;;;;;;2.67;0.90;;;25.10;66.20;;;;;;6192285;23;20372;-77
2022/05/22 10:15:30;;;;;;;2.22;0.95;;;25.10;63.40;;;;;;6192272;23;20055;-78
2022/05/22 10:18:26;;;;;;;2.95;0.75;;;25.20;64.90;;;;;;6193863;23;20056;-77
2022/05/22 10:21:18;;;;;;;3.67;0.90;;;25.10;63.80;;;;;;6192553;23;20239;-78
2022/05/22 10:23:50;;;;;;;4.60;1.17;;;24.90;63.90;;;;;;6167183;23;20029;-78
2022/05/22 10:26:41;;;;;;;2.47;0.98;;;24.80;65.90;;;;;;6192269;23;20005;-77
2022/05/22 10:29:22;;;;;;;2.90;1.08;;;25.00;66.10;;;;;;6192924;23;20041;-78
2022/05/22 10:32:12;;;;;;;3.38;1.00;;;25.00;64.00;;;;;;6193161;23;20017;-78
2022/05/22 10:35:14;;;;;;;5.28;1.00;;;24.90;64.80;;;;;;6193252;23;20080;-78
2022/05/22 10:37:52;;;;;;;2.20;0.80;;;25.00;64.20;;;;;;6127168;23;20076;-77
2022/05/22 10:40:21;;;;;;;4.55;0.90;;;25.10;64.20;;;;;;6193497;23;20005;-78
2022/05/22 10:42:52;;;;;;;2.47;0.63;;;25.10;63.60;;;;;;6193872;23;19993;-78
2022/05/22 10:45:37;;;;;;;2.17;1.10;;;24.90;63.40;;;;;;6192818;23;20005;-77
2022/05/22 10:48:12;;;;;;;3.35;0.90;;;25.00;64.70;;;;;;6167397;23;20077;-77
2022/05/22 10:50:50;;;;;;;3.83;0.90;;;25.30;64.70;;;;;;6197381;23;20001;-77
2022/05/22 10:53:32;;;;;;;5.30;1.02;;;25.30;64.30;;;;;;6177926;23;20028;-78
2022/05/22 10:56:15;;;;;;;3.45;1.00;;;25.40;63.90;;;;;;6205497;23;20025;-75
2022/05/22 10:59:03;;;;;;;2.45;1.00;;;25.50;63.60;;;;;;6194847;23;20012;-78
2022/05/22 11:01:34;;;;;;;2.63;0.95;;;25.50;63.20;;;;;;6192802;23;20064;-79
2022/05/22 11:04:09;;;;;;;2.30;0.90;;;25.40;63.50;;;;;;6192667;23;20283;-79
2022/05/22 11:06:39;;;;;;;3.42;1.00;;;25.40;63.50;;;;;;6192198;23;20068;-79
2022/05/22 11:09:07;;;;;;;3.47;1.10;;;25.40;63.50;;;;;;6192967;23;20004;-78
2022/05/22 11:11:37;;;;;;;1.90;0.80;;;25.60;63.30;;;;;;6195333;23;20003;-77
2022/05/22 11:14:12;;;;;;;2.45;0.90;;;25.70;63.10;;;;;;6195274;23;20032;-78
2022/05/22 11:16:39;;;;;;;3.25;1.13;;;26.10;63.60;;;;;;6194632;23;20017;-78
2022/05/22 11:19:13;;;;;;;2.63;1.00;;;26.50;61.30;;;;;;6197516;23;19993;-77
2022/05/22 11:22:08;;;;;;;2.13;0.85;;;26.90;61.60;;;;;;6197075;23;20080;-80
2022/05/22 11:24:39;;;;;;;2.13;0.80;;;27.40;60.30;;;;;;6164932;23;20012;-80
2022/05/22 11:27:28;;;;;;;3.15;0.82;;;28.10;59.40;;;;;;6168150;23;20115;-77
2022/05/22 11:30:41;;;;;;;2.33;1.00;;;28.60;58.60;;;;;;6169397;23;20009;-76
2022/05/22 11:33:46;;;;;;;3.70;0.90;;;28.80;57.30;;;;;;6160937;23;20303;-79
2022/05/22 11:36:11;;;;;;;3.28;0.93;;;29.10;55.70;;;;;;6194878;23;20000;-77
2022/05/22 11:39:11;;;;;;;2.53;0.70;;;29.30;56.30;;;;;;6169935;23;20048;-76
2022/05/22 11:42:06;;;;;;;1.73;0.80;;;30.20;56.20;;;;;;6152627;23;20005;-78
2022/05/22 11:44:56;;;;;;;3.10;0.98;;;31.40;55.40;;;;;;6194821;23;20005;-76
2022/05/22 11:47:40;;;;;;;1.90;0.63;;;31.60;54.00;;;;;;6193813;23;20020;-77
2022/05/22 11:50:38;;;;;;;2.35;0.93;;;31.60;53.80;;;;;;6194836;23;20008;-78
2022/05/22 11:53:29;;;;;;;3.25;0.80;;;32.00;53.10;;;;;;6168777;23;20291;-78
2022/05/22 11:56:16;;;;;;;2.63;0.80;;;32.50;52.00;;;;;;6194878;23;20001;-79
2022/05/22 11:59:07;;;;;;;2.85;1.35;;;33.10;52.10;;;;;;6168246;23;20321;-79
2022/05/22 12:01:50;;;;;;;2.13;0.80;;;34.00;51.10;;;;;;6193831;23;20028;-78
2022/05/22 12:04:53;;;;;;;2.85;1.10;;;34.90;50.60;;;;;;6167405;23;20005;-79
2022/05/22 12:07:28;;;;;;;2.28;0.73;;;36.00;49.40;;;;;;6193098;23;20012;-76
2022/05/22 12:10:05;;;;;;;2.83;0.80;;;36.60;48.90;;;;;;6193772;23;19997;-77
2022/05/22 12:12:36;;;;;;;2.33;0.80;;;37.70;48.30;;;;;;6166733;23;20005;-79
2022/05/22 12:15:27;;;;;;;2.55;0.65;;;38.10;47.10;;;;;;6193618;23;20308;-81
2022/05/22 12:18:07;;;;;;;3.50;0.90;;;38.10;46.70;;;;;;6166849;23;20016;-79
2022/05/22 12:20:44;;;;;;;1.45;0.60;;;38.30;46.60;;;;;;6167497;23;20020;-81
2022/05/22 12:23:21;;;;;;;2.35;0.75;;;38.50;46.70;;;;;;6190969;23;20005;-81
2022/05/22 12:26:03;;;;;;;2.28;0.70;;;39.00;46.00;;;;;;6193567;23;20322;-79
2022/05/22 12:28:42;;;;;;;1.63;0.65;;;38.90;46.00;;;;;;6166465;23;20254;-80
2022/05/22 12:31:17;;;;;;;3.17;0.90;;;39.40;45.60;;;;;;6192148;23;20017;-81
2022/05/22 12:33:44;;;;;;;2.67;0.70;;;39.60;45.00;;;;;;6167107;23;20072;-79
2022/05/22 12:36:12;;;;;;;1.83;0.90;;;39.10;45.00;;;;;;6192677;23;20056;-79
2022/05/22 12:38:51;;;;;;;2.08;0.70;;;38.90;45.20;;;;;;6167391;23;20012;-79
2022/05/22 12:41:35;;;;;;;2.08;0.80;;;39.10;45.20;;;;;;6142155;23;20024;-79
2022/05/22 12:44:04;;;;;;;2.58;0.70;;;39.10;44.40;;;;;;6143519;23;20064;-79
2022/05/22 12:46:30;;;;;;;1.98;0.70;;;39.70;44.30;;;;;;6193086;23;20017;-79
2022/05/22 12:49:32;;;;;;;2.33;0.87;;;39.20;43.90;;;;;;6144276;23;20065;-78
2022/05/22 12:52:06;;;;;;;1.52;0.55;;;38.90;45.10;;;;;;6131656;23;20005;-77
2022/05/22 12:54:35;;;;;;;1.98;0.65;;;39.10;43.70;;;;;;6194216;23;20020;-79
2022/05/22 12:57:10;;;;;;;2.60;0.75;;;39.70;43.80;;;;;;6194359;23;20013;-78
2022/05/22 12:59:37;;;;;;;2.55;0.90;;;39.80;44.00;;;;;;6194720;23;20047;-79
2022/05/22 13:02:03;;;;;;;2.42;0.85;;;39.80;43.60;;;;;;6193580;23;20021;-79
2022/05/22 13:04:49;;;;;;;1.85;0.80;;;40.20;43.60;;;;;;6194391;23;20243;-79
2022/05/22 13:07:21;;;;;;;1.67;0.60;;;40.60;43.20;;;;;;6166467;23;20273;-79
2022/05/22 13:09:51;;;;;;;2.10;0.85;;;40.00;42.30;;;;;;6193972;23;20271;-79
2022/05/22 13:12:16;;;;;;;2.00;0.70;;;40.00;42.90;;;;;;6143174;23;20009;-77
2022/05/22 13:14:50;;;;;;;1.92;0.77;;;39.40;43.40;;;;;;6194190;23;20235;-77
2022/05/22 13:17:31;;;;;;;2.28;0.55;;;38.80;43.10;;;;;;6192834;23;20076;-80
2022/05/22 13:20:02;;;;;;;1.80;0.60;;;39.40;42.90;;;;;;6197689;23;20001;-77
2022/05/22 13:22:34;;;;;;;3.15;0.95;;;40.10;42.50;;;;;;6195468;23;20056;-77
2022/05/22 13:25:01;;;;;;;2.50;0.85;;;41.50;42.00;;;;;;6195904;23;20025;-78
2022/05/22 13:27:30;;;;;;;1.92;0.70;;;41.90;41.60;;;;;;6194148;23;19993;-77
2022/05/22 13:30:24;;;;;;;3.25;1.08;;;41.50;41.40;;;;;;6194243;23;20052;-77
2022/05/22 13:33:06;;;;;;;2.03;0.70;;;42.00;41.60;;;;;;6194082;23;20064;-78
2022/05/22 13:35:35;;;;;;;2.47;0.75;;;41.90;41.50;;;;;;6168090;23;20361;-78
2022/05/22 13:38:02;;;;;;;2.13;0.80;;;42.30;41.10;;;;;;6194100;23;20295;-78
2022/05/22 13:40:43;;;;;;;3.20;1.00;;;43.30;40.90;;;;;;6167728;23;20290;-78
2022/05/22 13:43:37;;;;;;;2.50;0.85;;;43.70;40.30;;;;;;6194111;23;20001;-79
2022/05/22 13:46:24;;;;;;;1.75;0.63;;;43.50;40.00;;;;;;6187684;23;20009;-78
2022/05/22 13:49:02;;;;;;;;;;;42.60;40.20;;;;;;6168791;23;20008;-78
2022/05/22 13:54:49;;;;;;;3.70;0.63;;;41.70;40.70;;;;;;6194266;23;20001;-78
2022/05/22 13:57:24;;;;;;;2.38;0.70;;;39.90;41.00;;;;;;6167659;23;20036;-79
2022/05/22 14:00:23;;;;;;;1.42;0.63;;;39.90;41.60;;;;;;6167552;23;20005;-79
2022/05/22 14:03:08;;;;;;;2.17;0.68;;;40.10;41.50;;;;;;6163652;23;20064;-80
2022/05/22 14:05:40;;;;;;;2.45;0.57;;;40.50;41.10;;;;;;6166956;23;20399;-79
2022/05/22 14:08:20;;;;;;;1.67;0.73;;;40.40;41.60;;;;;;6193600;23;20012;-80
2022/05/22 14:10:59;;;;;;;2.08;0.65;;;40.60;41.00;;;;;;6193623;23;20064;-79
2022/05/22 14:13:27;;;;;;;1.95;0.50;;;41.40;40.90;;;;;;6193047;23;20020;-78
2022/05/22 14:16:01;;;;;;;3.30;0.60;;;42.20;40.40;;;;;;6142013;23;20043;-80
2022/05/22 14:18:29;;;;;;;2.03;0.60;;;42.40;39.30;;;;;;6167233;23;20005;-80
2022/05/22 14:21:14;;;;;;;1.77;0.60;;;42.60;39.50;;;;;;6167235;23;20047;-80
2022/05/22 14:26:31;;;;;;;1.83;0.80;;;43.10;39.50;;;;;;6192986;23;20024;-79
2022/05/22 14:28:57;;;;;;;1.88;0.52;;;43.00;39.30;;;;;;6193623;23;20012;-79
2022/05/22 14:31:26;;;;;;;2.30;0.50;;;41.70;39.70;;;;;;6192176;23;20017;-80
2022/05/22 14:34:00;;;;;;;1.90;0.80;;;41.10;39.60;;;;;;6166927;23;20178;-79
2022/05/22 14:36:26;;;;;;;2.75;0.70;;;40.50;40.40;;;;;;6193047;23;20287;-81
2022/05/22 14:38:52;;;;;;;2.72;0.60;;;41.20;39.50;;;;;;6167807;23;20005;-79
2022/05/22 14:41:22;;;;;;;1.73;0.57;;;42.60;38.90;;;;;;6193424;23;20009;-80
2022/05/22 14:43:55;;;;;;;1.75;0.50;;;43.10;39.30;;;;;;6193720;23;19997;-79
2022/05/22 14:46:36;;;;;;;2.35;0.45;;;43.30;39.00;;;;;;6166182;23;20017;-80
2022/05/22 14:49:19;;;;;;;0.90;0.40;;;42.90;38.70;;;;;;6167725;23;20021;-79
2022/05/22 14:51:59;;;;;;;1.70;0.50;;;42.50;38.40;;;;;;6193535;23;20001;-80
2022/05/22 14:54:41;;;;;;;2.50;0.60;;;42.00;38.40;;;;;;6193518;23;20104;-79
2022/05/22 14:57:19;;;;;;;1.38;0.50;;;42.00;38.80;;;;;;6193907;23;20011;-79
2022/05/22 14:59:51;;;;;;;1.98;0.80;;;42.00;38.90;;;;;;6167488;23;20056;-80
2022/05/22 15:02:26;;;;;;;1.20;0.57;;;42.60;38.70;;;;;;6192155;23;20077;-79
2022/05/22 15:04:53;;;;;;;2.45;0.80;;;43.40;38.60;;;;;;6194030;23;19997;-81
2022/05/22 15:07:26;;;;;;;1.80;0.80;;;44.60;38.10;;;;;;6193127;23;19993;-79
2022/05/22 15:09:55;;;;;;;1.75;0.60;;;43.40;37.60;;;;;;6191996;23;20012;-80
2022/05/22 15:12:34;;;;;;;1.50;0.63;;;41.80;38.40;;;;;;6192750;23;20021;-80
2022/05/22 15:15:00;;;;;;;2.35;0.80;;;40.70;39.10;;;;;;6193600;23;20001;-78
2022/05/22 15:17:30;;;;;;;1.83;0.70;;;39.70;39.50;;;;;;6193266;23;20020;-78
2022/05/22 15:20:04;;;;;;;2.03;0.55;;;38.80;40.20;;;;;;6195809;23;20013;-80
2022/05/22 15:25:29;;;;;;;2.05;0.40;;;37.30;41.50;;;;;;6194751;23;20005;-79
2022/05/22 15:27:59;;;;;;;1.60;0.63;;;36.90;42.10;;;;;;6167240;23;20052;-79
2022/05/22 15:30:53;;;;;;;1.55;0.63;;;36.10;42.70;;;;;;6190841;23;20038;-79
2022/05/22 15:33:22;;;;;;;1.60;0.60;;;35.40;43.10;;;;;;6177300;23;20002;-79
2022/05/22 15:35:52;;;;;;;3.05;1.08;;;34.80;44.40;;;;;;6193387;23;19993;-79
2022/05/22 15:38:26;;;;;;;2.78;0.90;;;33.90;45.10;;;;;;6193357;23;20001;-79
2022/05/22 15:40:58;;;;;;;2.10;1.00;;;33.10;45.50;;;;;;6193654;23;20024;-79
2022/05/22 15:43:31;;;;;;;2.03;0.93;;;32.40;48.00;;;;;;6193080;23;20020;-79
2022/05/22 15:46:06;;;;;;;3.28;0.88;;;32.00;47.30;;;;;;6166255;23;20028;-78
2022/05/22 15:51:41;;;;;;;2.15;0.70;;;30.70;49.40;;;;;;6192917;23;20009;-79
2022/05/22 15:54:09;;;;;;;2.45;0.70;;;30.10;49.40;;;;;;6193507;23;20001;-79
2022/05/22 15:56:35;;;;;;;2.30;0.98;;;29.50;49.50;;;;;;6193728;23;20056;-79
2022/05/22 15:59:04;;;;;;;2.15;0.90;;;29.20;51.00;;;;;;6193366;23;20038;-79
2022/05/22 16:01:32;;;;;;;1.83;0.80;;;29.10;51.20;;;;;;6167050;23;20009;-79
2022/05/22 16:03:57;;;;;;;3.35;0.85;;;28.80;50.90;;;;;;6168505;23;20303;-80
2022/05/22 16:06:24;;;;;;;2.97;1.40;;;28.60;51.80;;;;;;6168208;23;20052;-78
2022/05/22 16:08:50;;;;;;;3.38;1.23;;;28.30;51.70;;;;;;6144504;23;20001;-81
2022/05/22 16:11:17;;;;;;;3.15;1.20;;;28.10;52.50;;;;;;6144331;23;20071;-82
2022/05/22 16:13:45;;;;;;;2.58;0.82;;;27.90;52.00;;;;;;6168190;23;20001;-80
2022/05/22 16:16:18;;;;;;;4.30;1.10;;;27.70;53.50;;;;;;6168022;23;20298;-79
2022/05/22 16:18:44;;;;;;;4.95;0.98;;;27.40;52.80;;;;;;6168326;23;20005;-80
2022/05/22 16:21:12;;;;;;;2.13;0.90;;;27.40;53.20;;;;;;6144382;23;20001;-80
2022/05/22 16:23:38;;;;;;;2.60;0.90;;;27.20;53.30;;;;;;6168108;23;20012;-78
2022/05/22 16:26:07;;;;;;;3.10;0.63;;;27.00;53.40;;;;;;6143601;23;20005;-82
2022/05/22 16:28:34;;;;;;;2.38;0.75;;;26.90;53.90;;;;;;6194593;23;20005;-80
2022/05/22 16:31:03;;;;;;;2.95;0.98;;;26.90;53.60;;;;;;6194030;23;20291;-82
2022/05/22 16:33:32;;;;;;;2.53;1.13;;;27.00;54.30;;;;;;6195246;23;20103;-80
2022/05/22 16:35:58;;;;;;;3.47;1.10;;;27.10;53.60;;;;;;6143721;23;20072;-80
2022/05/22 16:38:24;;;;;;;4.00;1.08;;;27.10;54.10;;;;;;6194015;23;19997;-81
2022/05/22 16:40:50;;;;;;;2.60;0.77;;;27.10;54.50;;;;;;6194435;23;20001;-79
2022/05/22 16:43:16;;;;;;;3.58;1.20;;;26.90;54.30;;;;;;6193186;23;20005;-79
2022/05/22 16:45:42;;;;;;;2.88;0.90;;;26.70;54.60;;;;;;6192097;23;20012;-80
2022/05/22 16:53:37;;;;;;;3.25;0.93;;;26.60;54.60;;;;;;6193306;23;20008;-79
2022/05/22 16:56:03;;;;;;;3.97;1.15;;;26.70;54.50;;;;;;6195332;23;20005;-79
2022/05/22 16:58:42;;;;;;;3.33;0.70;;;26.60;53.70;;;;;;6168418;23;20283;-79
2022/05/22 17:01:09;;;;;;;3.25;0.93;;;26.30;53.50;;;;;;6166573;23;20076;-79
2022/05/22 17:03:45;;;;;;;2.80;0.80;;;26.00;54.20;;;;;;6193684;23;20039;-81
2022/05/22 17:06:23;;;;;;;2.95;0.98;;;25.70;55.00;;;;;;6194133;23;20068;-80
2022/05/22 17:08:58;;;;;;;3.17;1.10;;;25.50;56.60;;;;;;6166608;23;20091;-80
2022/05/22 17:11:24;;;;;;;2.97;1.10;;;25.30;58.40;;;;;;6167931;23;20023;-79
2022/05/22 17:13:59;;;;;;;1.75;0.77;;;25.30;58.30;;;;;;6167547;23;20009;-79
2022/05/22 17:16:25;;;;;;;2.50;0.93;;;25.40;58.30;;;;;;6193556;23;20012;-79
2022/05/22 17:18:51;;;;;;;2.65;0.70;;;25.30;57.70;;;;;;6194139;23;20179;-78
2022/05/22 17:21:19;;;;;;;4.10;1.00;;;25.30;57.60;;;;;;6194084;23;20060;-79
2022/05/22 17:23:45;;;;;;;3.33;0.88;;;25.20;57.30;;;;;;6193294;23;20005;-79
2022/05/22 17:26:12;;;;;;;5.03;1.08;;;25.30;58.40;;;;;;6194591;23;20012;-79
2022/05/22 17:28:41;;;;;;;1.92;0.70;;;25.30;58.30;;;;;;6167968;23;20064;-79
2022/05/22 17:31:07;;;;;;;4.20;1.05;;;25.40;57.40;;;;;;6193890;23;20016;-80
2022/05/22 17:33:33;;;;;;;4.10;1.08;;;25.40;58.60;;;;;;6192322;23;20012;-79
2022/05/22 17:36:01;;;;;;;4.35;1.00;;;25.40;58.40;;;;;;6194185;23;20001;-80
2022/05/22 17:38:29;;;;;;;3.25;0.88;;;25.40;58.70;;;;;;6167520;23;20052;-80
2022/05/22 17:40:55;;;;;;;2.25;0.82;;;25.50;58.60;;;;;;6193973;23;20299;-79
2022/05/22 17:43:21;;;;;;;2.58;0.85;;;25.70;57.90;;;;;;6192558;23;20227;-79
2022/05/22 17:45:48;;;;;;;3.15;1.13;;;25.80;57.40;;;;;;6193111;23;20306;-80
2022/05/22 17:48:16;;;;;;;4.18;1.05;;;26.10;57.20;;;;;;6194167;23;20062;-79
2022/05/22 17:50:49;;;;;;;2.50;1.08;;;26.30;58.10;;;;;;6142528;23;20012;-84
2022/05/22 17:53:15;;;;;;;2.92;1.00;;;26.50;57.90;;;;;;6118152;23;20019;-83
2022/05/22 17:55:44;;;;;;;3.08;1.10;;;26.40;56.70;;;;;;6137932;23;20016;-83
2022/05/22 17:58:10;;;;;;;3.42;1.00;;;26.20;56.30;;;;;;6138742;23;19993;-83
2022/05/22 18:00:36;;;;;;;2.70;1.10;;;26.20;57.10;;;;;;6135964;23;20203;-80
2022/05/22 18:03:03;;;;;;;2.60;1.00;;;26.20;57.30;;;;;;6163699;23;20314;-84
2022/05/22 18:05:29;;;;;;;1.90;0.90;;;26.10;57.50;;;;;;6137983;23;20005;-83
2022/05/22 18:07:56;;;;;;;1.75;0.82;;;26.10;57.90;;;;;;6138191;23;20013;-84
2022/05/22 18:16:02;;;;;;;3.38;1.30;;;25.80;58.00;;;;;;6137030;23;20029;-82
2022/05/22 18:18:31;;;;;;;2.42;1.10;;;25.70;58.80;;;;;;6162808;23;20005;-83
2022/05/22 18:21:04;;;;;;;3.40;1.52;;;25.50;58.10;;;;;;6113386;23;20053;-81
2022/05/22 18:23:38;;;;;;;2.83;1.30;;;25.30;59.20;;;;;;6135895;23;20291;-80
2022/05/22 18:26:04;;;;;;;3.22;1.30;;;25.10;59.80;;;;;;6163807;23;20009;-81
2022/05/22 18:28:40;;;;;;;5.13;1.40;;;24.90;60.70;;;;;;6113164;23;20021;-80
2022/05/22 18:31:11;;;;;;;2.35;1.20;;;24.70;61.50;;;;;;6137178;23;20020;-82
2022/05/22 18:33:37;;;;;;;3.72;1.23;;;24.50;62.10;;;;;;6137263;23;20006;-80
2022/05/22 18:36:03;;;;;;;2.63;1.50;;;24.30;62.80;;;;;;6163393;23;20009;-78
2022/05/22 18:38:28;;;;;;;4.07;1.20;;;24.10;64.30;;;;;;6163497;23;20012;-81
2022/05/22 18:40:55;;;;;;;2.65;1.10;;;24.00;65.60;;;;;;6162714;23;20009;-80
2022/05/22 18:43:23;;;;;;;3.88;1.00;;;23.80;65.80;;;;;;6163365;23;20052;-79
2022/05/22 18:45:52;;;;;;;4.25;1.10;;;23.70;66.70;;;;;;6136498;23;20002;-78
2022/05/22 18:48:19;;;;;;;4.30;1.13;;;23.60;67.30;;;;;;6137622;23;20064;-80
2022/05/22 18:50:45;;;;;;;2.72;1.10;;;23.50;67.90;;;;;;6137185;23;20005;-79
2022/05/22 18:53:13;;;;;;;3.03;1.17;;;23.40;68.40;;;;;;6163195;23;20009;-82
2022/05/22 18:55:42;;;;;;;6.05;1.00;;;23.30;68.00;;;;;;6137229;23;20005;-81
2022/05/22 18:58:09;;;;;;;3.78;1.10;;;23.20;69.10;;;;;;6137363;23;20005;-78
2022/05/22 19:00:37;;;;;;;5.20;1.20;;;23.20;68.00;;;;;;6162363;23;20013;-79
2022/05/22 19:03:04;;;;;;;4.97;1.85;;;23.10;68.30;;;;;;6163272;23;20069;-79
2022/05/22 19:05:32;;;;;;;2.75;1.20;;;23.10;67.60;;;;;;6163334;23;20006;-78